Custer, SD

5:36 PM MDT on August 24, 2016 (GMT -0600)
Hay Creek Road | | Change Station

Elev 5325 ft 43.70 °N, 103.67 °W | Updated 7 seconds ago

Overcast
Overcast
67.5 °F
Feels Like 67.5 °F
N
7.6
Wind Variable Wind from SSE
Gusts 9.8 mph

Today
High -- | Low -- °F
--% Chance of Precip.
Yesterday
High -- | Low -- °F
Precip. -- in
Pressure 30.07 in
Visibility 10.0 miles
Clouds Overcast 7000 ft
Dew Point 44 °F
Humidity 42%
Rainfall 0.00 in
Snow Depth Not available.
6:09 AM 7:42 PM
Waning Gibbous, 52% visible
METAR KCUT 242253Z AUTO 06016G24KT 10SM OVC070 18/03 A3021 RMK AO2 SLP182 T01830033
Pressure 30.07 in
Visibility 10.0 miles
Clouds Overcast 7000 ft
Dew Point 44 °F
Humidity 42%
Rainfall 0.00 in
Snow Depth Not available.
6:09 AM 7:42 PM
Waning Gibbous, 52% visible
METAR KCUT 242253Z AUTO 06016G24KT 10SM OVC070 18/03 A3021 RMK AO2 SLP182 T01830033

10-Day Weather Forecast

Almanac

Astronomy

Aug. 24, 2016 Rise Set
Actual Time
Civil Twilight
Nautical Twilight
Astronomical Twilight
Moon
Length of Visible Light
Length of Day
Tomorrow will be .
, % of the Moon is Illuminated

Today's Extremes

State Highs State Lows

Community

WunderPhotos

Upload Photos

1,934,738 photos uploaded!

WunderBlog® & News

Nearby

Air Quality

  Air Quality AQ Index Pollutant
Not available.

Snow Depth

Station Depth Elevation

Earthquake Activity

City Distance Mag. Time & Date
Minimum magnitude displayed is 2.5.

Coastal Water Temperatures

Place Temperature

Stations

Nearby Weather Stations

Station Location Temp. Windchill Dew Point Humidity Wind Precip. Elev Updated Type
                   

Watches & Warnings

There are currently no watches in effect.